Time;durP1;ratioP1;P1;durP2;ratioP2;P2;SDS_P1;SDS_P2;PMS_P1;PMS_P2;Temp;Humidity;BMP_temperature;BMP_pressure;BME280_temperature;BME280_humidity;BME280_pressure;Samples;Min_cycle;Max_cycle;Signal;HPM_P1;HPM_P2
2022/08/20 00:01:16;;;;;;;;;;;28.10;79.80;;;;;;5050582;28;19936;-56
2022/08/20 00:03:43;;;;;;;;;;;28.00;79.70;;;;;;5044415;28;19940;-55
2022/08/20 00:06:18;;;;;;;;;;;28.10;79.80;;;;;;5038952;28;19929;-56
2022/08/20 00:08:45;;;;;;;;;;;28.10;79.80;;;;;;5049615;28;20326;-57
2022/08/20 00:11:15;;;;;;;;;;;28.10;79.80;;;;;;5055883;28;19936;-57
2022/08/20 00:13:45;;;;;;;;;;;28.10;79.80;;;;;;5050291;28;19933;-59
2022/08/20 00:16:13;;;;;;;;;;;28.10;79.80;;;;;;5044689;28;19939;-59
2022/08/20 00:18:40;;;;;;;;;;;28.00;79.80;;;;;;5041321;28;20412;-58
2022/08/20 00:21:09;;;;;;;;;;;28.00;79.80;;;;;;5038658;28;19928;-59
2022/08/20 00:23:41;;;;;;;;;;;28.00;80.40;;;;;;5028071;28;19925;-58
2022/08/20 00:26:09;;;;;;;;;;;28.00;79.80;;;;;;5037077;28;20238;-57
2022/08/20 00:28:39;;;;;;;;;;;28.00;79.80;;;;;;5047267;28;19932;-54
2022/08/20 00:31:08;;;;;;;;;;;28.00;79.80;;;;;;5035471;28;19948;-58
2022/08/20 00:33:35;;;;;;;;;;;28.00;79.80;;;;;;5035627;28;19928;-59
2022/08/20 00:36:05;;;;;;;;;;;28.00;79.80;;;;;;5035632;28;19929;-57
2022/08/20 00:38:33;;;;;;;;;;;28.00;79.80;;;;;;5049024;28;19940;-57
2022/08/20 00:41:01;;;;;;;;;;;28.00;79.90;;;;;;5043735;28;19936;-59
2022/08/20 00:43:31;;;;;;;;;;;28.00;79.80;;;;;;5042798;28;19933;-55
2022/08/20 00:45:59;;;;;;;;;;;28.00;79.80;;;;;;5035594;28;19929;-55
2022/08/20 00:48:30;;;;;;;;;;;28.00;79.80;;;;;;5057364;28;19929;-59
2022/08/20 00:51:00;;;;;;;;;;;28.00;79.90;;;;;;5039650;28;19925;-60
2022/08/20 00:53:28;;;;;;;;;;;28.00;79.90;;;;;;5038836;28;19940;-58
2022/08/20 00:55:56;;;;;;;;;;;28.00;79.90;;;;;;5047664;28;19965;-57
2022/08/20 00:58:23;;;;;;;;;;;28.00;79.90;;;;;;5046299;28;19932;-59
2022/08/20 01:00:50;;;;;;;;;;;28.00;79.90;;;;;;5040427;28;19929;-59
2022/08/20 01:03:19;;;;;;;;;;;28.00;80.50;;;;;;5042528;28;19936;-58
2022/08/20 01:05:47;;;;;;;;;;;28.00;79.90;;;;;;5036655;28;19936;-58
2022/08/20 01:08:15;;;;;;;;;;;28.00;79.90;;;;;;5035986;28;20050;-60
2022/08/20 01:10:44;;;;;;;;;;;28.00;79.90;;;;;;5040546;28;20219;-59
2022/08/20 01:13:13;;;;;;;;;;;28.00;79.90;;;;;;5036956;28;19929;-59
2022/08/20 01:15:42;;;;;;;;;;;28.00;80.00;;;;;;5037369;28;19929;-59
2022/08/20 01:18:18;;;;;;;;;;;28.00;80.00;;;;;;5044856;28;19929;-53
2022/08/20 01:20:48;;;;;;;;;;;28.00;80.00;;;;;;5037341;28;19929;-55
2022/08/20 01:23:31;;;;;;;;;;;28.00;80.50;;;;;;5034554;28;19929;-58
2022/08/20 01:26:07;;;;;;;;;;;28.00;80.00;;;;;;5042860;28;19929;-57
2022/08/20 01:28:38;;;;;;;;;;;27.90;79.90;;;;;;5059002;28;19936;-58
2022/08/20 01:31:07;;;;;;;;;;;27.90;79.90;;;;;;5041977;28;19936;-58
2022/08/20 01:33:34;;;;;;;;;;;27.90;79.90;;;;;;5054339;28;19933;-56
2022/08/20 01:36:02;;;;;;;;;;;27.90;80.50;;;;;;5038985;28;19929;-58
2022/08/20 01:38:29;;;;;;;;;;;27.90;80.00;;;;;;5054556;28;19929;-58
2022/08/20 01:41:03;;;;;;;;;;;27.90;79.90;;;;;;5044996;28;19929;-60
2022/08/20 01:43:30;;;;;;;;;;;27.90;79.90;;;;;;5037153;28;19929;-58
2022/08/20 01:46:03;;;;;;;;;;;27.90;79.90;;;;;;5040037;28;19937;-60
2022/08/20 01:48:30;;;;;;;;;;;27.90;79.90;;;;;;5057628;28;19929;-60
2022/08/20 01:51:03;;;;;;;;;;;27.90;80.00;;;;;;5043214;28;19925;-60
2022/08/20 01:53:33;;;;;;;;;;;27.90;80.00;;;;;;5036214;28;19929;-55
2022/08/20 01:56:01;;;;;;;;;;;27.90;80.00;;;;;;5044393;28;19932;-60
2022/08/20 01:58:29;;;;;;;;;;;27.90;79.90;;;;;;5050039;28;19948;-58
2022/08/20 02:00:56;;;;;;;;;;;27.90;80.00;;;;;;5036727;28;19929;-58
2022/08/20 02:03:24;;;;;;;;;;;27.90;80.00;;;;;;5037920;28;19970;-56
2022/08/20 02:05:52;;;;;;;;;;;27.90;80.00;;;;;;5042713;28;19929;-55
2022/08/20 02:08:20;;;;;;;;;;;27.90;80.00;;;;;;5036299;28;20355;-57
2022/08/20 02:10:47;;;;;;;;;;;27.90;80.00;;;;;;5041760;28;19928;-57
2022/08/20 02:13:15;;;;;;;;;;;27.90;80.00;;;;;;5034358;28;20155;-59
2022/08/20 02:15:42;;;;;;;;;;;27.90;80.00;;;;;;5043722;28;19925;-55
2022/08/20 02:18:12;;;;;;;;;;;27.90;80.60;;;;;;5041942;28;19935;-58
2022/08/20 02:20:40;;;;;;;;;;;27.90;80.00;;;;;;5038942;28;19928;-58
2022/08/20 02:23:07;;;;;;;;;;;27.90;80.00;;;;;;5035499;28;19944;-59
2022/08/20 02:25:36;;;;;;;;;;;27.90;80.00;;;;;;5047357;28;19935;-56
2022/08/20 02:28:05;;;;;;;;;;;27.90;80.00;;;;;;5037123;28;19929;-61
2022/08/20 02:30:33;;;;;;;;;;;27.90;80.00;;;;;;5042484;28;19925;-56
2022/08/20 02:33:02;;;;;;;;;;;27.90;80.00;;;;;;5034622;28;20000;-58
2022/08/20 02:35:30;;;;;;;;;;;27.90;80.00;;;;;;5035411;28;19940;-60
2022/08/20 02:38:00;;;;;;;;;;;27.90;80.00;;;;;;5036786;28;20331;-58
2022/08/20 02:40:28;;;;;;;;;;;27.90;80.00;;;;;;5031946;28;19939;-58
2022/08/20 02:42:58;;;;;;;;;;;27.90;80.10;;;;;;5031613;28;19925;-59
2022/08/20 02:45:26;;;;;;;;;;;27.90;80.10;;;;;;5040093;28;19946;-60
2022/08/20 02:47:55;;;;;;;;;;;27.90;80.10;;;;;;5031026;28;19925;-59
2022/08/20 02:50:24;;;;;;;;;;;27.90;80.10;;;;;;5031279;28;19929;-58
2022/08/20 02:52:51;;;;;;;;;;;27.90;80.10;;;;;;5030896;28;19936;-55
2022/08/20 02:55:18;;;;;;;;;;;27.90;80.10;;;;;;5045045;28;19924;-58
2022/08/20 02:57:55;;;;;;;;;;;27.90;80.10;;;;;;5041312;28;19940;-57
2022/08/20 03:00:26;;;;;;;;;;;27.90;80.10;;;;;;5038906;28;19933;-56
2022/08/20 03:02:53;;;;;;;;;;;27.90;80.10;;;;;;5037138;28;19929;-54
2022/08/20 03:05:20;;;;;;;;;;;27.80;80.10;;;;;;5038203;28;19936;-56
2022/08/20 03:07:48;;;;;;;;;;;27.90;80.10;;;;;;5040123;28;19929;-55
2022/08/20 03:10:16;;;;;;;;;;;27.80;80.10;;;;;;5049605;28;19929;-53
2022/08/20 03:12:44;;;;;;;;;;;27.80;80.10;;;;;;5035719;28;19929;-57
2022/08/20 03:15:14;;;;;;;;;;;27.80;80.10;;;;;;5036164;28;20640;-55
2022/08/20 03:17:44;;;;;;;;;;;27.80;80.10;;;;;;5035429;28;19933;-55
2022/08/20 03:20:11;;;;;;;;;;;27.80;80.10;;;;;;5036777;28;19929;-58
2022/08/20 03:22:38;;;;;;;;;;;27.80;80.10;;;;;;5034338;28;19929;-54
2022/08/20 03:25:06;;;;;;;;;;;27.80;80.10;;;;;;5044985;28;19939;-58
2022/08/20 03:27:33;;;;;;;;;;;27.80;80.10;;;;;;5036803;28;19925;-58
2022/08/20 03:30:06;;;;;;;;;;;27.80;80.10;;;;;;5036310;28;19936;-56
2022/08/20 03:32:34;;;;;;;;;;;27.80;80.10;;;;;;5043064;28;19925;-59
2022/08/20 03:35:01;;;;;;;;;;;27.80;80.10;;;;;;5047087;28;19936;-56
2022/08/20 03:37:30;;;;;;;;;;;27.80;80.10;;;;;;5035573;28;19929;-59
2022/08/20 03:39:58;;;;;;;;;;;27.80;80.10;;;;;;5035465;28;19932;-56
2022/08/20 03:42:26;;;;;;;;;;;27.80;80.10;;;;;;5034911;28;19940;-57
2022/08/20 03:44:53;;;;;;;;;;;27.80;80.10;;;;;;5036980;28;19933;-58
2022/08/20 03:47:25;;;;;;;;;;;27.80;80.10;;;;;;5034482;28;19940;-59
2022/08/20 03:49:56;;;;;;;;;;;27.80;80.20;;;;;;5043068;28;19936;-59
2022/08/20 03:52:24;;;;;;;;;;;27.80;80.20;;;;;;5036184;28;20309;-59
2022/08/20 03:54:51;;;;;;;;;;;27.80;80.20;;;;;;5052665;28;19929;-57
2022/08/20 03:57:18;;;;;;;;;;;27.80;80.20;;;;;;5041074;28;19936;-59
2022/08/20 03:59:45;;;;;;;;;;;27.80;80.20;;;;;;5043584;28;19925;-58
2022/08/20 04:02:20;;;;;;;;;;;27.80;80.20;;;;;;5037179;28;19952;-57
2022/08/20 04:04:47;;;;;;;;;;;27.80;80.20;;;;;;5034305;28;19936;-58
2022/08/20 04:07:17;;;;;;;;;;;27.80;80.20;;;;;;5038471;28;20535;-57
2022/08/20 04:09:44;;;;;;;;;;;27.80;80.20;;;;;;5035410;28;20207;-58
2022/08/20 04:12:11;;;;;;;;;;;27.80;80.20;;;;;;5033651;28;20396;-54
2022/08/20 04:14:39;;;;;;;;;;;27.80;80.20;;;;;;5036434;28;19937;-58
2022/08/20 04:17:08;;;;;;;;;;;27.70;80.20;;;;;;5034211;28;19925;-55
2022/08/20 04:19:36;;;;;;;;;;;27.70;80.20;;;;;;5050627;28;19936;-57
2022/08/20 04:22:04;;;;;;;;;;;27.80;80.20;;;;;;5039337;28;19956;-57
2022/08/20 04:24:31;;;;;;;;;;;27.80;80.20;;;;;;5037828;28;20127;-57
2022/08/20 04:27:01;;;;;;;;;;;27.70;80.20;;;;;;5043435;28;20293;-55
2022/08/20 04:29:29;;;;;;;;;;;27.70;80.20;;;;;;5037790;28;20416;-55
2022/08/20 04:31:59;;;;;;;;;;;27.70;80.20;;;;;;5035569;28;19929;-58
2022/08/20 04:34:29;;;;;;;;;;;27.70;80.20;;;;;;5034669;28;19925;-58
2022/08/20 04:36:56;;;;;;;;;;;27.70;80.20;;;;;;5035234;28;19939;-58
2022/08/20 04:39:23;;;;;;;;;;;27.70;80.20;;;;;;5042683;28;19929;-59
2022/08/20 04:41:51;;;;;;;;;;;27.70;80.20;;;;;;5037688;28;20246;-59
2022/08/20 04:44:20;;;;;;;;;;;27.70;80.30;;;;;;5034338;28;19929;-59
2022/08/20 04:46:47;;;;;;;;;;;27.70;80.30;;;;;;5033642;28;19936;-59
2022/08/20 04:49:15;;;;;;;;;;;27.70;80.30;;;;;;5033569;28;19933;-57
2022/08/20 04:51:42;;;;;;;;;;;27.70;80.30;;;;;;5042043;28;19929;-54
2022/08/20 04:54:09;;;;;;;;;;;27.70;80.30;;;;;;5037063;28;19929;-54
2022/08/20 04:56:39;;;;;;;;;;;27.70;80.30;;;;;;5043388;28;20303;-56
2022/08/20 04:59:06;;;;;;;;;;;27.70;80.30;;;;;;5047017;28;19929;-59
2022/08/20 05:01:34;;;;;;;;;;;27.70;80.30;;;;;;5034809;28;20351;-60
2022/08/20 05:04:01;;;;;;;;;;;27.70;80.30;;;;;;5036361;28;19933;-59
2022/08/20 05:06:30;;;;;;;;;;;27.70;80.30;;;;;;5037695;28;19936;-60
2022/08/20 05:08:58;;;;;;;;;;;27.70;80.30;;;;;;5043533;28;19929;-60
2022/08/20 05:11:25;;;;;;;;;;;27.70;80.30;;;;;;5038242;28;19933;-60
2022/08/20 05:14:07;;;;;;;;;;;27.70;80.30;;;;;;5043503;28;19929;-59
2022/08/20 05:16:38;;;;;;;;;;;27.70;80.30;;;;;;5038591;28;19967;-60
2022/08/20 05:19:09;;;;;;;;;;;27.70;80.40;;;;;;5036866;28;19933;-60
2022/08/20 05:21:37;;;;;;;;;;;27.70;80.40;;;;;;5041939;28;19929;-55
2022/08/20 05:24:05;;;;;;;;;;;27.70;80.30;;;;;;5044545;28;19936;-59
2022/08/20 05:26:32;;;;;;;;;;;27.70;80.30;;;;;;5041715;28;19933;-60
2022/08/20 05:28:59;;;;;;;;;;;27.70;80.40;;;;;;5048250;28;19979;-58
2022/08/20 05:31:27;;;;;;;;;;;27.60;80.30;;;;;;5050996;28;19932;-59
2022/08/20 05:34:01;;;;;;;;;;;27.70;80.40;;;;;;5037003;28;19929;-59
2022/08/20 05:36:28;;;;;;;;;;;27.60;80.30;;;;;;5042614;28;20305;-58
2022/08/20 05:38:55;;;;;;;;;;;27.60;80.30;;;;;;5036886;28;20398;-57
2022/08/20 05:41:22;;;;;;;;;;;27.60;80.90;;;;;;5036483;28;20400;-54
2022/08/20 05:43:59;;;;;;;;;;;27.60;80.30;;;;;;5038538;28;19933;-56
2022/08/20 05:46:27;;;;;;;;;;;27.60;80.30;;;;;;5045351;28;19936;-54
2022/08/20 05:48:54;;;;;;;;;;;27.60;80.90;;;;;;5036955;28;19925;-58
2022/08/20 05:51:26;;;;;;;;;;;27.60;80.30;;;;;;5039462;28;19934;-58
2022/08/20 05:53:53;;;;;;;;;;;27.70;80.40;;;;;;5041029;28;20411;-59
2022/08/20 05:56:24;;;;;;;;;;;27.60;80.40;;;;;;5045950;28;19963;-59
2022/08/20 05:58:53;;;;;;;;;;;27.60;80.30;;;;;;5041578;28;19932;-58
2022/08/20 06:01:20;;;;;;;;;;;27.60;80.40;;;;;;5037377;28;19929;-59
2022/08/20 06:06:34;;;;;;;;;;;27.60;80.40;;;;;;5036407;28;19933;-57
2022/08/20 06:09:16;;;;;;;;;;;27.60;80.40;;;;;;5045965;28;19924;-58
2022/08/20 06:11:59;;;;;;;;;;;27.60;80.40;;;;;;5033525;28;19968;-59
2022/08/20 06:14:26;;;;;;;;;;;27.60;80.40;;;;;;5037376;28;20258;-59
2022/08/20 06:16:53;;;;;;;;;;;27.60;80.40;;;;;;5032092;28;19944;-59
2022/08/20 06:19:25;;;;;;;;;;;27.60;80.40;;;;;;5038020;28;19936;-57
2022/08/20 06:21:53;;;;;;;;;;;27.60;81.00;;;;;;5036955;28;19937;-58
2022/08/20 06:24:20;;;;;;;;;;;27.60;80.40;;;;;;5053065;28;19935;-56
2022/08/20 06:26:53;;;;;;;;;;;27.60;81.00;;;;;;5054830;28;19929;-58
2022/08/20 06:29:20;;;;;;;;;;;27.60;80.40;;;;;;5047556;28;19928;-58
2022/08/20 06:31:47;;;;;;;;;;;27.60;80.50;;;;;;5054973;28;19925;-59
2022/08/20 06:34:17;;;;;;;;;;;27.60;80.50;;;;;;5059348;28;19913;-60
2022/08/20 06:36:45;;;;;;;;;;;27.60;80.50;;;;;;5056768;28;20192;-59
2022/08/20 06:39:13;;;;;;;;;;;27.60;80.50;;;;;;5054725;28;19923;-59
2022/08/20 06:41:40;;;;;;;;;;;27.60;80.50;;;;;;5041844;28;20358;-60
2022/08/20 06:44:08;;;;;;;;;;;27.60;80.50;;;;;;5050914;22;19956;-53
2022/08/20 06:46:36;;;;;;;;;;;27.60;80.50;;;;;;5036840;28;20004;-53
2022/08/20 06:49:04;;;;;;;;;;;27.60;80.50;;;;;;5035729;28;20347;-58
2022/08/20 06:51:32;;;;;;;;;;;27.60;80.50;;;;;;5028501;28;19929;-54
2022/08/20 06:54:00;;;;;;;;;;;27.60;80.50;;;;;;5027266;28;19929;-54
2022/08/20 06:56:27;;;;;;;;;;;27.60;80.50;;;;;;5040675;28;20324;-53
2022/08/20 06:58:54;;;;;;;;;;;27.60;80.50;;;;;;5035849;28;20332;-54
2022/08/20 07:01:21;;;;;;;;;;;27.60;80.50;;;;;;5033329;28;19944;-54
2022/08/20 07:03:51;;;;;;;;;;;27.60;80.50;;;;;;5038196;28;19932;-52
2022/08/20 07:06:24;;;;;;;;;;;27.60;80.50;;;;;;5028486;28;19925;-53
2022/08/20 07:08:51;;;;;;;;;;;27.60;80.50;;;;;;5034680;28;20422;-57
2022/08/20 07:11:19;;;;;;;;;;;27.60;80.50;;;;;;5029029;28;19936;-52
2022/08/20 07:13:55;;;;;;;;;;;27.60;80.60;;;;;;5031033;28;20379;-56
2022/08/20 07:16:22;;;;;;;;;;;27.60;80.50;;;;;;5034494;28;19936;-58
2022/08/20 07:18:50;;;;;;;;;;;27.60;80.50;;;;;;5044775;28;19929;-59
2022/08/20 07:21:18;;;;;;;;;;;27.60;80.50;;;;;;5030157;28;20485;-57
2022/08/20 07:23:47;;;;;;;;;;;27.60;80.50;;;;;;5033430;28;19933;-56
2022/08/20 07:26:14;;;;;;;;;;;27.60;80.50;;;;;;5047846;28;19929;-57
2022/08/20 07:28:41;;;;;;;;;;;27.60;80.50;;;;;;5040135;28;20418;-54
2022/08/20 07:33:57;;;;;;;;;;;27.60;80.50;;;;;;5030149;28;19933;-55
2022/08/20 07:36:26;;;;;;;;;;;27.60;80.50;;;;;;5027563;28;19933;-54
2022/08/20 07:38:53;;;;;;;;;;;27.60;80.60;;;;;;5034335;28;20270;-54
2022/08/20 07:41:23;;;;;;;;;;;27.60;80.50;;;;;;5049191;28;19940;-55
2022/08/20 07:43:50;;;;;;;;;;;27.60;80.60;;;;;;5027211;28;20179;-53
2022/08/20 07:46:20;;;;;;;;;;;27.60;80.60;;;;;;5027236;28;20323;-52
2022/08/20 07:48:48;;;;;;;;;;;27.60;80.60;;;;;;5029175;28;20130;-54
2022/08/20 07:51:17;;;;;;;;;;;27.60;80.60;;;;;;5026941;28;20320;-51
2022/08/20 07:53:45;;;;;;;;;;;27.60;80.60;;;;;;5034651;28;20039;-56
2022/08/20 07:56:14;;;;;;;;;;;27.60;80.60;;;;;;5041432;28;19932;-61
2022/08/20 07:58:48;;;;;;;;;;;27.60;80.60;;;;;;5033850;28;20543;-53
2022/08/20 08:01:18;;;;;;;;;;;27.60;80.50;;;;;;5026896;28;19936;-55
2022/08/20 08:03:45;;;;;;;;;;;27.60;80.50;;;;;;5045660;28;19936;-58
2022/08/20 08:06:18;;;;;;;;;;;27.60;80.50;;;;;;5034548;28;19929;-52
2022/08/20 08:08:58;;;;;;;;;;;27.60;80.50;;;;;;5026814;28;20385;-55
2022/08/20 08:11:25;;;;;;;;;;;27.60;80.60;;;;;;5027939;28;19933;-52
2022/08/20 08:13:52;;;;;;;;;;;27.60;80.60;;;;;;5032509;28;19932;-52
2022/08/20 08:16:19;;;;;;;;;;;27.60;80.60;;;;;;5038207;28;19936;-55
2022/08/20 08:18:48;;;;;;;;;;;27.60;80.60;;;;;;5037186;28;19936;-55
2022/08/20 08:21:17;;;;;;;;;;;27.60;80.60;;;;;;5030572;28;19929;-54
2022/08/20 08:23:44;;;;;;;;;;;27.60;80.60;;;;;;5029801;28;19929;-54
2022/08/20 08:26:13;;;;;;;;;;;27.60;80.70;;;;;;5030331;28;19948;-55
2022/08/20 08:28:45;;;;;;;;;;;27.60;80.60;;;;;;5031625;28;19929;-53
2022/08/20 08:31:13;;;;;;;;;;;27.60;80.60;;;;;;5037452;28;19925;-56
2022/08/20 08:33:41;;;;;;;;;;;27.60;80.70;;;;;;5035708;28;19936;-55
2022/08/20 08:36:10;;;;;;;;;;;27.60;80.70;;;;;;5029784;28;19933;-54
2022/08/20 08:38:38;;;;;;;;;;;27.60;80.70;;;;;;5030272;28;19932;-56
2022/08/20 08:41:14;;;;;;;;;;;27.60;80.60;;;;;;5030541;28;20255;-55
2022/08/20 08:43:45;;;;;;;;;;;27.60;80.60;;;;;;5030431;28;19936;-51
2022/08/20 08:46:15;;;;;;;;;;;27.70;80.70;;;;;;5038440;28;19932;-52
2022/08/20 08:48:44;;;;;;;;;;;27.70;80.70;;;;;;5033408;28;19940;-56
2022/08/20 08:51:15;;;;;;;;;;;27.70;80.70;;;;;;5029209;28;19952;-58
2022/08/20 08:53:47;;;;;;;;;;;27.70;80.70;;;;;;5031107;28;19932;-52
2022/08/20 08:56:14;;;;;;;;;;;27.70;80.70;;;;;;5032605;28;19941;-57
2022/08/20 08:58:43;;;;;;;;;;;27.70;80.70;;;;;;5030398;28;19929;-57
2022/08/20 09:01:11;;;;;;;;;;;27.70;80.70;;;;;;5028632;28;19929;-52
2022/08/20 09:04:00;;;;;;;;;;;27.60;80.60;;;;;;5030929;28;19939;-55
2022/08/20 09:06:27;;;;;;;;;;;27.70;80.70;;;;;;5029785;28;19933;-53
2022/08/20 09:08:56;;;;;;;;;;;27.70;80.60;;;;;;5036072;28;19969;-61
2022/08/20 09:11:24;;;;;;;;;;;27.80;80.60;;;;;;5030031;28;19935;-54
2022/08/20 09:13:53;;;;;;;;;;;27.80;80.60;;;;;;5035729;28;20438;-55
2022/08/20 09:16:23;;;;;;;;;;;27.80;80.60;;;;;;5031696;28;19929;-55
2022/08/20 09:18:53;;;;;;;;;;;27.80;80.70;;;;;;5036756;28;19928;-52
2022/08/20 09:21:21;;;;;;;;;;;27.80;80.70;;;;;;5031969;28;19937;-59
2022/08/20 09:23:48;;;;;;;;;;;27.80;80.70;;;;;;5031086;28;19933;-53
2022/08/20 09:26:15;;;;;;;;;;;27.80;80.70;;;;;;5041174;28;19928;-53
2022/08/20 09:28:42;;;;;;;;;;;27.80;80.70;;;;;;5033942;28;19932;-54
2022/08/20 09:31:13;;;;;;;;;;;27.80;80.80;;;;;;5044024;28;19929;-54
2022/08/20 09:33:44;;;;;;;;;;;27.80;80.80;;;;;;5029998;28;19929;-53
2022/08/20 09:36:11;;;;;;;;;;;27.80;80.80;;;;;;5028996;28;19929;-57
2022/08/20 09:38:59;;;;;;;;;;;27.80;80.80;;;;;;5033523;28;20447;-53
2022/08/20 09:41:26;;;;;;;;;;;27.80;80.80;;;;;;5029824;28;19936;-55
2022/08/20 09:43:53;;;;;;;;;;;27.80;80.80;;;;;;5030485;28;19959;-54
2022/08/20 09:46:20;;;;;;;;;;;27.80;80.70;;;;;;5032842;28;19929;-55
2022/08/20 09:48:54;;;;;;;;;;;27.80;80.80;;;;;;5048041;28;19929;-51
2022/08/20 09:51:21;;;;;;;;;;;27.90;80.80;;;;;;5033935;28;19929;-54
2022/08/20 09:53:48;;;;;;;;;;;27.90;80.80;;;;;;5037294;28;19925;-57
2022/08/20 09:56:16;;;;;;;;;;;27.90;80.80;;;;;;5031179;28;20022;-57
2022/08/20 09:58:48;;;;;;;;;;;27.90;80.80;;;;;;5042300;28;19932;-54
2022/08/20 10:01:17;;;;;;;;;;;27.90;80.80;;;;;;5031359;28;19929;-54
2022/08/20 10:03:46;;;;;;;;;;;27.80;80.80;;;;;;5032874;28;19932;-54
2022/08/20 10:06:15;;;;;;;;;;;27.80;80.80;;;;;;5043770;28;20419;-50
2022/08/20 10:08:42;;;;;;;;;;;27.80;80.90;;;;;;5036187;28;19925;-50
2022/08/20 10:11:10;;;;;;;;;;;27.80;80.90;;;;;;5028412;28;19933;-57
2022/08/20 10:13:37;;;;;;;;;;;27.80;80.80;;;;;;5030607;28;20467;-55
2022/08/20 10:16:04;;;;;;;;;;;27.80;80.80;;;;;;5035969;28;19929;-54
2022/08/20 10:18:32;;;;;;;;;;;27.80;80.80;;;;;;5044059;28;19929;-56
2022/08/20 10:20:59;;;;;;;;;;;27.80;80.80;;;;;;5039611;28;20004;-56
2022/08/20 10:23:26;;;;;;;;;;;27.80;80.90;;;;;;5027467;28;19929;-55
2022/08/20 10:25:54;;;;;;;;;;;27.90;80.90;;;;;;5029135;28;20419;-56
2022/08/20 10:28:21;;;;;;;;;;;27.90;80.80;;;;;;5029447;28;19952;-54
2022/08/20 10:30:48;;;;;;;;;;;27.90;80.80;;;;;;5033494;28;19929;-55
2022/08/20 10:33:15;;;;;;;;;;;27.90;80.80;;;;;;5028779;28;19947;-53
2022/08/20 10:35:42;;;;;;;;;;;27.80;80.80;;;;;;5027972;28;19944;-54
2022/08/20 10:38:09;;;;;;;;;;;27.90;80.90;;;;;;5036079;28;19939;-52
2022/08/20 10:40:36;;;;;;;;;;;27.90;80.90;;;;;;5041808;28;20412;-59
2022/08/20 10:43:03;;;;;;;;;;;27.90;80.90;;;;;;5037840;28;19932;-55
2022/08/20 10:45:30;;;;;;;;;;;27.80;81.40;;;;;;5029368;28;19925;-58
2022/08/20 10:47:59;;;;;;;;;;;27.80;80.80;;;;;;5032822;28;19936;-54
2022/08/20 10:50:26;;;;;;;;;;;27.80;80.80;;;;;;5027538;28;20408;-56
2022/08/20 10:52:56;;;;;;;;;;;27.80;80.80;;;;;;5030581;28;19925;-56
2022/08/20 10:55:23;;;;;;;;;;;27.80;80.80;;;;;;5033857;28;19992;-58
2022/08/20 10:57:51;;;;;;;;;;;27.90;80.80;;;;;;5037552;28;20400;-57
2022/08/20 11:00:18;;;;;;;;;;;27.90;80.80;;;;;;5026735;28;19929;-49
2022/08/20 11:02:45;;;;;;;;;;;27.90;80.90;;;;;;5026926;28;19929;-55
2022/08/20 11:05:12;;;;;;;;;;;27.90;80.80;;;;;;5028596;28;19940;-55
2022/08/20 11:07:41;;;;;;;;;;;27.90;80.90;;;;;;5034966;28;19933;-58
2022/08/20 11:10:29;;;;;;;;;;;27.90;80.90;;;;;;5033740;28;19935;-59
2022/08/20 11:12:56;;;;;;;;;;;27.90;80.90;;;;;;5027359;28;19929;-53
2022/08/20 11:15:24;;;;;;;;;;;27.90;80.90;;;;;;5027590;28;19928;-55
2022/08/20 11:17:51;;;;;;;;;;;27.90;80.90;;;;;;5028423;28;20404;-57
2022/08/20 11:20:20;;;;;;;;;;;27.90;80.90;;;;;;5027979;28;19940;-56
2022/08/20 11:22:47;;;;;;;;;;;27.90;81.40;;;;;;5027062;28;19929;-53
2022/08/20 11:25:14;;;;;;;;;;;27.90;80.90;;;;;;5041861;28;19951;-55
2022/08/20 11:27:43;;;;;;;;;;;27.90;80.80;;;;;;5042845;28;19929;-51
2022/08/20 11:30:11;;;;;;;;;;;27.90;80.80;;;;;;5028109;28;19955;-56
2022/08/20 11:32:39;;;;;;;;;;;27.90;80.80;;;;;;5029822;28;19936;-54
2022/08/20 11:35:06;;;;;;;;;;;27.90;80.80;;;;;;5030765;28;20399;-57
2022/08/20 11:37:54;;;;;;;;;;;27.90;80.80;;;;;;5039394;28;19929;-52
2022/08/20 11:40:21;;;;;;;;;;;27.90;80.80;;;;;;5029351;28;19940;-55
2022/08/20 11:42:49;;;;;;;;;;;27.90;80.80;;;;;;5027617;28;19925;-56
2022/08/20 11:45:36;;;;;;;;;;;27.90;80.80;;;;;;5040645;28;20380;-56
2022/08/20 11:48:04;;;;;;;;;;;27.90;80.70;;;;;;5030245;28;19925;-54
2022/08/20 11:50:31;;;;;;;;;;;27.90;80.80;;;;;;5031611;28;20381;-51
2022/08/20 11:52:58;;;;;;;;;;;27.90;80.70;;;;;;5031231;28;19940;-52
2022/08/20 11:55:27;;;;;;;;;;;27.90;80.70;;;;;;5046250;28;20533;-55
2022/08/20 11:57:57;;;;;;;;;;;27.90;80.70;;;;;;5032044;28;20348;-51
2022/08/20 12:00:27;;;;;;;;;;;27.90;80.70;;;;;;5029483;28;20404;-54
2022/08/20 12:03:00;;;;;;;;;;;27.90;80.70;;;;;;5030319;28;19933;-57
2022/08/20 12:05:28;;;;;;;;;;;27.90;80.70;;;;;;5031771;28;19933;-55
2022/08/20 12:07:58;;;;;;;;;;;27.90;80.70;;;;;;5037294;28;20319;-55
2022/08/20 12:10:26;;;;;;;;;;;27.90;80.70;;;;;;5031377;28;19940;-54
2022/08/20 12:12:54;;;;;;;;;;;27.90;80.70;;;;;;5034992;28;20381;-57
2022/08/20 12:15:22;;;;;;;;;;;27.90;80.70;;;;;;5030603;28;20396;-51
2022/08/20 12:17:50;;;;;;;;;;;27.90;80.70;;;;;;5036249;28;19959;-55
2022/08/20 12:20:17;;;;;;;;;;;27.90;80.70;;;;;;5032025;28;19936;-58
2022/08/20 12:22:44;;;;;;;;;;;27.90;80.70;;;;;;5040295;28;19933;-53
2022/08/20 12:25:12;;;;;;;;;;;27.90;80.70;;;;;;5034642;28;19929;-56
2022/08/20 12:27:39;;;;;;;;;;;27.90;80.70;;;;;;5030701;28;19929;-49
2022/08/20 12:30:11;;;;;;;;;;;27.90;80.70;;;;;;5032506;28;19925;-55
2022/08/20 12:32:38;;;;;;;;;;;27.90;80.70;;;;;;5038484;28;19944;-50
2022/08/20 12:35:06;;;;;;;;;;;27.90;80.70;;;;;;5031264;28;19948;-54
2022/08/20 12:37:33;;;;;;;;;;;27.90;80.60;;;;;;5033649;28;19929;-56
2022/08/20 12:40:02;;;;;;;;;;;28.00;80.70;;;;;;5038409;28;19933;-53
2022/08/20 12:42:29;;;;;;;;;;;28.00;80.60;;;;;;5030783;28;19929;-57
2022/08/20 12:44:56;;;;;;;;;;;28.00;80.80;;;;;;5029978;28;19929;-55
2022/08/20 12:47:24;;;;;;;;;;;27.90;80.70;;;;;;5030293;28;19929;-55
2022/08/20 12:49:55;;;;;;;;;;;28.00;80.70;;;;;;5035475;28;19945;-53
2022/08/20 12:52:23;;;;;;;;;;;28.00;80.60;;;;;;5030883;28;19944;-53
2022/08/20 12:54:51;;;;;;;;;;;28.00;80.60;;;;;;5040823;28;19936;-58
2022/08/20 12:57:23;;;;;;;;;;;28.00;80.50;;;;;;5033033;28;19945;-54
2022/08/20 12:59:51;;;;;;;;;;;28.10;80.60;;;;;;5034145;28;19929;-55
2022/08/20 13:02:18;;;;;;;;;;;28.10;80.50;;;;;;5030102;28;20336;-56
2022/08/20 13:04:45;;;;;;;;;;;28.00;80.40;;;;;;5030230;28;19952;-52
2022/08/20 13:07:13;;;;;;;;;;;28.10;80.50;;;;;;5030094;28;20478;-49
2022/08/20 13:09:40;;;;;;;;;;;28.10;80.40;;;;;;5034777;28;19959;-53
2022/08/20 13:12:07;;;;;;;;;;;28.20;80.50;;;;;;5031603;28;20025;-55
2022/08/20 13:14:35;;;;;;;;;;;28.20;80.40;;;;;;5035630;28;19960;-51
2022/08/20 13:17:03;;;;;;;;;;;28.10;80.30;;;;;;5038117;28;20427;-53
2022/08/20 13:19:33;;;;;;;;;;;28.20;80.30;;;;;;5028996;28;19940;-55
2022/08/20 13:22:00;;;;;;;;;;;28.20;80.30;;;;;;5030429;28;19937;-56
2022/08/20 13:24:27;;;;;;;;;;;28.20;80.20;;;;;;5034762;28;21096;-52
2022/08/20 13:27:02;;;;;;;;;;;28.30;80.30;;;;;;5030628;28;20324;-53
2022/08/20 13:29:29;;;;;;;;;;;28.30;80.20;;;;;;5040695;28;19924;-55
2022/08/20 13:31:56;;;;;;;;;;;28.30;80.10;;;;;;5054823;28;19929;-52
2022/08/20 13:34:23;;;;;;;;;;;28.30;80.10;;;;;;5032005;28;19930;-56
2022/08/20 13:36:50;;;;;;;;;;;28.40;80.00;;;;;;5029841;28;19976;-56
2022/08/20 13:39:18;;;;;;;;;;;28.40;80.00;;;;;;5036712;28;20392;-53
2022/08/20 13:41:45;;;;;;;;;;;28.40;79.90;;;;;;5039084;28;19928;-55
2022/08/20 13:44:12;;;;;;;;;;;28.50;80.00;;;;;;5031114;28;19929;-50
2022/08/20 13:46:39;;;;;;;;;;;28.50;79.90;;;;;;5046441;28;19940;-49
2022/08/20 13:49:06;;;;;;;;;;;28.50;79.80;;;;;;5035847;28;19929;-53
2022/08/20 13:51:33;;;;;;;;;;;28.60;79.80;;;;;;5031193;28;19929;-50
2022/08/20 13:54:00;;;;;;;;;;;28.60;79.60;;;;;;5029138;28;19933;-51
2022/08/20 13:56:27;;;;;;;;;;;28.60;79.60;;;;;;5037593;28;19941;-55
2022/08/20 13:58:54;;;;;;;;;;;28.70;79.50;;;;;;5028598;28;19929;-57
2022/08/20 14:01:21;;;;;;;;;;;28.70;79.40;;;;;;5033988;28;19925;-52
2022/08/20 14:03:48;;;;;;;;;;;28.80;79.40;;;;;;5029151;28;19925;-55
2022/08/20 14:06:16;;;;;;;;;;;28.80;79.40;;;;;;5039446;28;19936;-57
2022/08/20 14:08:43;;;;;;;;;;;28.80;79.20;;;;;;5029204;28;19936;-55
2022/08/20 14:11:10;;;;;;;;;;;28.90;79.20;;;;;;5040820;28;19940;-52
2022/08/20 14:13:40;;;;;;;;;;;28.90;79.10;;;;;;5031087;28;19980;-50
2022/08/20 14:16:07;;;;;;;;;;;28.90;79.10;;;;;;5043942;28;19935;-56
2022/08/20 14:18:55;;;;;;;;;;;29.00;79.10;;;;;;5039169;28;19989;-51
2022/08/20 14:21:22;;;;;;;;;;;29.00;79.00;;;;;;5028987;28;20250;-57
2022/08/20 14:23:49;;;;;;;;;;;29.10;79.00;;;;;;5029279;28;19925;-53
2022/08/20 14:26:16;;;;;;;;;;;29.10;78.90;;;;;;5038749;28;20314;-55
2022/08/20 14:28:43;;;;;;;;;;;29.10;78.90;;;;;;5032549;28;19948;-56
2022/08/20 14:31:10;;;;;;;;;;;29.10;78.80;;;;;;5033491;28;19929;-54